5°C Temp
4°C Dewpoint
93% Humidity
Temperature
3 KM/H
2 MPH
2 KTS
Calm
Due North

Wind Speed
Clear
Conditions
Pressure 1033.86 (hPa) - 30.53 (in)
Visibility 6.0 (mi) - 9.7 (km)

Current Conditions
LSGS
Location Sion Airport 5(km)
Metar :LSGS 120520Z VRB02KT CAVOK 05/04 Q1034
Fri 12th April 07:20 am

Airport
  Metar Aviation API Data Provided by https://www.checkwx.com/ PHP scripts by weather34.com ©2024